Time;durP1;ratioP1;P1;durP2;ratioP2;P2;SDS_P1;SDS_P2;PMS_P1;PMS_P2;Temp;Humidity;BMP_temperature;BMP_pressure;BME280_temperature;BME280_humidity;BME280_pressure;Samples;Min_cycle;Max_cycle;Signal;HPM_P1;HPM_P2
2022/04/05 00:00:09;;;;;;;20.67;10.43;;;;;;;;;;6255312;23;20175;-84
2022/04/05 00:03:15;;;;;;;23.90;11.27;;;;;;;;;;6253282;22;20284;-84
2022/04/05 00:06:20;;;;;;;21.73;10.87;;;;;;;;;;6252808;23;20170;-85
2022/04/05 00:09:26;;;;;;;19.53;10.80;;;;;;;;;;6252720;23;20171;-85
2022/04/05 00:12:31;;;;;;;21.47;10.43;;;;;;;;;;6252696;23;20692;-85
2022/04/05 00:15:38;;;;;;;21.70;10.27;;;;;;;;;;6232896;23;20630;-85
2022/04/05 00:18:42;;;;;;;18.07;9.30;;;;;;;;;;6234426;23;20216;-85
2022/04/05 00:21:48;;;;;;;20.07;10.17;;;;;;;;;;6234160;23;20490;-84
2022/04/05 00:24:55;;;;;;;23.90;10.93;;;;;;;;;;6237331;22;20189;-84
2022/04/05 00:28:02;;;;;;;20.67;10.73;;;;;;;;;;6235901;22;20190;-86
2022/04/05 00:31:07;;;;;;;22.50;11.17;;;;;;;;;;6234802;23;20170;-85
2022/04/05 00:34:12;;;;;;;23.27;11.10;;;;;;;;;;6236153;23;20249;-86
2022/04/05 00:37:20;;;;;;;20.90;10.40;;;;;;;;;;6235298;23;20225;-85
2022/04/05 00:40:26;;;;;;;21.53;10.47;;;;;;;;;;6252929;23;20174;-84
2022/04/05 00:43:31;;;;;;;21.20;11.00;;;;;;;;;;6234636;23;20162;-85
2022/04/05 00:46:36;;;;;;;27.50;13.43;;;;;;;;;;6234179;23;20165;-85
2022/04/05 00:49:44;;;;;;;25.73;13.17;;;;;;;;;;6235730;23;20245;-84
2022/04/05 00:52:49;;;;;;;23.77;12.07;;;;;;;;;;6235874;23;20170;-83
2022/04/05 00:55:58;;;;;;;23.17;11.80;;;;;;;;;;6233130;23;20538;-85
2022/04/05 00:59:03;;;;;;;24.33;12.17;;;;;;;;;;6237743;23;20166;-85
2022/04/05 01:02:09;;;;;;;25.77;12.90;;;;;;;;;;6256821;22;20165;-85
2022/04/05 01:05:17;;;;;;;25.23;12.43;;;;;;;;;;6237748;23;20162;-84
2022/04/05 01:08:23;;;;;;;23.50;12.50;;;;;;;;;;6255283;23;20186;-85
2022/04/05 01:11:29;;;;;;;24.10;12.67;;;;;;;;;;6254870;23;20569;-84
2022/04/05 01:14:35;;;;;;;27.63;13.13;;;;;;;;;;6254781;22;20259;-84
2022/04/05 01:17:44;;;;;;;25.77;12.50;;;;;;;;;;6236899;23;20277;-85
2022/04/05 01:20:51;;;;;;;25.80;14.10;;;;;;;;;;6254977;23;20610;-86
2022/04/05 01:24:08;;;;;;;27.83;13.63;;;;;;;;;;6254461;23;20171;-85
2022/04/05 01:27:17;;;;;;;28.10;12.70;;;;;;;;;;6235232;23;20260;-84
2022/04/05 01:30:23;;;;;;;28.57;14.37;;;;;;;;;;6235257;22;20158;-83
2022/04/05 01:33:28;;;;;;;28.73;14.40;;;;;;;;;;6236014;22;20232;-86
2022/04/05 01:36:32;;;;;;;26.97;14.60;;;;;;;;;;6235235;23;20161;-85
2022/04/05 01:39:40;;;;;;;27.23;13.40;;;;;;;;;;6253764;22;20241;-85
2022/04/05 01:42:46;;;;;;;27.23;13.30;;;;;;;;;;6256569;23;20209;-81
2022/04/05 01:45:52;;;;;;;24.30;11.90;;;;;;;;;;6233899;23;20178;-84
2022/04/05 01:48:57;;;;;;;26.23;12.47;;;;;;;;;;6235314;22;20167;-85
2022/04/05 01:52:02;;;;;;;24.90;12.60;;;;;;;;;;6235700;22;20337;-84
2022/04/05 01:55:09;;;;;;;25.13;12.53;;;;;;;;;;6252648;23;20174;-85
2022/04/05 01:58:14;;;;;;;26.80;13.13;;;;;;;;;;6235417;23;20186;-85
2022/04/05 02:01:19;;;;;;;26.17;12.43;;;;;;;;;;6238075;23;20265;-85
2022/04/05 02:04:24;;;;;;;23.23;12.80;;;;;;;;;;6237401;22;20151;-86
2022/04/05 02:07:30;;;;;;;26.83;12.53;;;;;;;;;;6238625;23;20318;-86
2022/04/05 02:10:37;;;;;;;26.20;12.20;;;;;;;;;;6255257;22;20166;-85
2022/04/05 02:13:43;;;;;;;24.83;12.50;;;;;;;;;;6237850;23;20178;-84
2022/04/05 02:16:49;;;;;;;27.60;12.40;;;;;;;;;;6237855;23;20166;-85
2022/04/05 02:19:56;;;;;;;22.03;10.83;;;;;;;;;;6253474;23;20221;-85
2022/04/05 02:23:03;;;;;;;22.03;11.83;;;;;;;;;;6253923;23;20166;-84
2022/04/05 02:26:23;;;;;;;25.30;12.10;;;;;;;;;;6236486;23;20553;-84
2022/04/05 02:29:31;;;;;;;19.93;10.37;;;;;;;;;;6254418;23;20162;-82
2022/04/05 02:32:42;;;;;;;24.07;10.73;;;;;;;;;;6255581;22;20170;-85
2022/04/05 02:35:51;;;;;;;20.80;10.13;;;;;;;;;;6254021;23;20155;-84
2022/04/05 02:38:57;;;;;;;21.03;9.60;;;;;;;;;;6254240;22;20264;-86
2022/04/05 02:42:07;;;;;;;19.93;10.37;;;;;;;;;;6253089;23;20590;-84
2022/04/05 02:45:16;;;;;;;20.07;10.27;;;;;;;;;;6234638;23;20513;-85
2022/04/05 02:48:22;;;;;;;21.00;10.60;;;;;;;;;;6236421;23;20158;-84
2022/04/05 02:51:29;;;;;;;20.00;10.20;;;;;;;;;;6254483;23;20193;-85
2022/04/05 02:54:38;;;;;;;22.53;10.53;;;;;;;;;;6255706;23;20170;-84
2022/04/05 02:57:47;;;;;;;21.77;10.27;;;;;;;;;;6235861;23;20202;-84
2022/04/05 03:00:59;;;;;;;18.67;10.10;;;;;;;;;;6254716;23;20171;-86
2022/04/05 03:04:03;;;;;;;19.40;10.10;;;;;;;;;;6255097;23;20174;-84
2022/04/05 03:07:10;;;;;;;21.40;9.33;;;;;;;;;;6236321;22;20221;-84
2022/04/05 03:10:17;;;;;;;19.83;9.03;;;;;;;;;;6236837;23;20170;-85
2022/04/05 03:13:28;;;;;;;18.50;10.00;;;;;;;;;;6238074;23;20586;-85
2022/04/05 03:16:37;;;;;;;22.57;10.00;;;;;;;;;;6255147;23;20170;-85
2022/04/05 03:19:44;;;;;;;18.93;9.07;;;;;;;;;;6238149;23;20228;-84
2022/04/05 03:22:50;;;;;;;15.60;7.80;;;;;;;;;;6255680;23;20169;-83
2022/04/05 03:25:55;;;;;;;13.03;7.03;;;;;;;;;;6257569;23;20253;-84
2022/04/05 03:29:05;;;;;;;14.73;7.83;;;;;;;;;;6257433;23;20167;-84
2022/04/05 03:32:11;;;;;;;16.63;8.37;;;;;;;;;;6239040;23;20166;-87
2022/04/05 03:35:17;;;;;;;17.10;8.07;;;;;;;;;;6256925;22;20186;-85
2022/04/05 03:38:24;;;;;;;13.90;7.13;;;;;;;;;;6236602;23;20213;-85
2022/04/05 03:41:30;;;;;;;18.40;7.63;;;;;;;;;;6238594;23;20150;-84
2022/04/05 03:44:38;;;;;;;15.27;7.00;;;;;;;;;;6237472;23;20290;-86
2022/04/05 03:47:43;;;;;;;13.67;6.90;;;;;;;;;;6237880;23;20210;-85
2022/04/05 03:50:51;;;;;;;13.33;6.90;;;;;;;;;;6255864;23;20630;-84
2022/04/05 03:53:58;;;;;;;16.73;7.07;;;;;;;;;;6254168;23;20174;-85
2022/04/05 03:57:06;;;;;;;13.20;7.53;;;;;;;;;;6236767;23;20166;-86
2022/04/05 04:00:16;;;;;;;15.63;7.60;;;;;;;;;;6253116;23;20241;-83
2022/04/05 04:03:28;;;;;;;20.43;8.60;;;;;;;;;;6236298;23;20159;-85
2022/04/05 04:06:32;;;;;;;15.20;7.80;;;;;;;;;;6233689;23;20218;-85
2022/04/05 04:09:37;;;;;;;16.03;7.13;;;;;;;;;;6234250;23;20182;-84
2022/04/05 04:12:44;;;;;;;14.07;7.37;;;;;;;;;;6253016;23;20170;-84
2022/04/05 04:15:52;;;;;;;14.17;7.20;;;;;;;;;;6252689;23;20170;-84
2022/04/05 04:18:58;;;;;;;18.53;7.17;;;;;;;;;;6237117;23;20190;-83
2022/04/05 04:22:07;;;;;;;13.93;7.57;;;;;;;;;;6236228;23;20502;-84
2022/04/05 04:25:14;;;;;;;13.07;7.20;;;;;;;;;;6252161;23;20232;-85
2022/04/05 04:28:20;;;;;;;15.53;7.10;;;;;;;;;;6234532;23;20281;-85
2022/04/05 04:31:27;;;;;;;14.77;6.90;;;;;;;;;;6234681;23;20174;-85
2022/04/05 04:34:32;;;;;;;4.03;2.33;;;;;;;;;;6234810;23;20171;-85
2022/04/05 04:37:36;;;;;;;0.50;0.50;;;;;;;;;;6237203;23;20174;-85
2022/04/05 04:40:41;;;;;;;0.50;0.50;;;;;;;;;;6235532;23;20178;-85
2022/04/05 04:43:46;;;;;;;1.77;1.17;;;;;;;;;;6253378;23;20182;-84
2022/04/05 04:46:53;;;;;;;0.50;0.50;;;;;;;;;;6234555;23;20246;-84
2022/04/05 04:49:58;;;;;;;0.50;0.50;;;;;;;;;;6254785;23;20178;-84
2022/04/05 04:53:03;;;;;;;0.77;0.77;;;;;;;;;;6236590;23;20632;-85
2022/04/05 04:56:08;;;;;;;0.57;0.57;;;;;;;;;;6235279;23;20612;-84
2022/04/05 04:59:13;;;;;;;2.53;1.37;;;;;;;;;;6251546;23;20190;-83
2022/04/05 05:02:22;;;;;;;0.80;0.80;;;;;;;;;;6253146;23;20175;-85
2022/04/05 05:05:28;;;;;;;0.57;0.57;;;;;;;;;;6233823;23;20175;-83
2022/04/05 05:08:33;;;;;;;1.47;1.27;;;;;;;;;;6253293;23;20166;-84
2022/04/05 05:11:38;;;;;;;0.70;0.70;;;;;;;;;;6252960;23;20660;-84
2022/04/05 05:14:43;;;;;;;0.73;0.73;;;;;;;;;;6254131;23;20178;-84
2022/04/05 05:17:50;;;;;;;0.40;0.40;;;;;;;;;;6253828;23;20166;-84
2022/04/05 05:20:55;;;;;;;1.73;1.53;;;;;;;;;;6236534;23;20190;-84
2022/04/05 05:24:00;;;;;;;1.23;1.10;;;;;;;;;;6250936;23;20186;-84
2022/04/05 05:27:05;;;;;;;1.10;0.87;;;;;;;;;;6251900;23;20170;-85
2022/04/05 05:30:11;;;;;;;0.40;0.40;;;;;;;;;;6254673;23;20209;-85
2022/04/05 05:33:18;;;;;;;4.10;1.97;;;;;;;;;;6251999;23;20167;-84
2022/04/05 05:36:23;;;;;;;1.43;1.33;;;;;;;;;;6236495;23;20241;-85
2022/04/05 05:39:28;;;;;;;1.30;0.77;;;;;;;;;;6236663;23;20190;-85
2022/04/05 05:42:33;;;;;;;1.47;1.17;;;;;;;;;;6251598;23;20298;-82
2022/04/05 05:45:38;;;;;;;0.47;0.47;;;;;;;;;;6235022;23;20249;-84
2022/04/05 05:48:45;;;;;;;1.37;0.63;;;;;;;;;;6254077;23;20167;-84
2022/04/05 05:51:50;;;;;;;0.53;0.53;;;;;;;;;;6254451;23;20190;-84
2022/04/05 05:54:55;;;;;;;0.80;0.80;;;;;;;;;;6234179;23;20705;-85
2022/04/05 05:58:00;;;;;;;1.07;0.77;;;;;;;;;;6236965;23;20622;-85
2022/04/05 06:01:05;;;;;;;0.40;0.40;;;;;;;;;;6253563;23;20171;-85
2022/04/05 06:04:36;;;;;;;1.33;1.23;;;;;;;;;;6256247;23;20629;-84
2022/04/05 06:07:48;;;;;;;0.97;0.87;;;;;;;;;;6251679;23;20174;-84
2022/04/05 06:10:53;;;;;;;1.50;0.63;;;;;;;;;;6233969;23;20170;-83
2022/04/05 06:13:58;;;;;;;1.20;1.10;;;;;;;;;;6251015;23;20197;-84
2022/04/05 06:17:12;;;;;;;0.77;0.77;;;;;;;;;;6250370;23;20174;-81
2022/04/05 06:20:18;;;;;;;1.10;0.80;;;;;;;;;;6236459;23;20181;-85
2022/04/05 06:23:25;;;;;;;0.63;0.63;;;;;;;;;;6252364;23;20206;-86
2022/04/05 06:26:30;;;;;;;1.00;0.90;;;;;;;;;;6234963;23;20194;-88
2022/04/05 06:29:35;;;;;;;1.63;0.97;;;;;;;;;;6257414;23;20166;-86
2022/04/05 06:32:40;;;;;;;1.10;1.07;;;;;;;;;;6258045;23;20221;-86
2022/04/05 06:35:46;;;;;;;0.80;0.80;;;;;;;;;;6238774;23;20170;-86
2022/04/05 06:38:52;;;;;;;0.50;0.50;;;;;;;;;;6236697;23;20194;-89
2022/04/05 06:41:58;;;;;;;6.40;1.67;;;;;;;;;;6236018;23;20193;-87
2022/04/05 06:45:05;;;;;;;1.37;0.93;;;;;;;;;;6233046;23;20166;-88
2022/04/05 06:48:11;;;;;;;0.60;0.60;;;;;;;;;;6232704;23;20174;-86
2022/04/05 06:51:16;;;;;;;0.73;0.73;;;;;;;;;;6233089;23;20193;-90
2022/04/05 06:54:23;;;;;;;1.60;1.23;;;;;;;;;;6251413;23;20170;-87
2022/04/05 06:57:28;;;;;;;2.07;0.90;;;;;;;;;;6237364;23;20165;-87
2022/04/05 07:00:33;;;;;;;0.87;0.87;;;;;;;;;;6252942;23;20601;-88
2022/04/05 07:03:38;;;;;;;0.60;0.60;;;;;;;;;;6252392;23;20169;-85
2022/04/05 07:06:43;;;;;;;2.50;1.60;;;;;;;;;;6255394;23;20243;-85
2022/04/05 07:09:49;;;;;;;0.90;0.87;;;;;;;;;;6234467;23;20634;-87
2022/04/05 07:12:54;;;;;;;0.80;0.80;;;;;;;;;;6252454;23;20170;-87
2022/04/05 07:15:59;;;;;;;1.13;0.97;;;;;;;;;;6239733;23;20171;-87
2022/04/05 07:19:04;;;;;;;0.90;0.90;;;;;;;;;;6253879;23;20321;-85
2022/04/05 07:22:09;;;;;;;0.30;0.30;;;;;;;;;;6235804;23;20174;-87
2022/04/05 07:25:16;;;;;;;1.07;0.70;;;;;;;;;;6236591;23;20198;-88
2022/04/05 07:28:21;;;;;;;0.43;0.43;;;;;;;;;;6254814;23;20174;-87
2022/04/05 07:31:26;;;;;;;0.63;0.63;;;;;;;;;;6234821;23;20213;-88
2022/04/05 07:34:33;;;;;;;2.83;1.33;;;;;;;;;;6252924;22;20225;-87
2022/04/05 07:37:39;;;;;;;1.17;1.07;;;;;;;;;;6234859;23;20170;-87
2022/04/05 07:40:48;;;;;;;0.60;0.60;;;;;;;;;;6234470;23;20206;-85
2022/04/05 07:43:54;;;;;;;0.80;0.80;;;;;;;;;;6253556;23;20170;-89
2022/04/05 07:46:59;;;;;;;0.90;0.87;;;;;;;;;;6236111;23;20269;-88
2022/04/05 07:50:07;;;;;;;0.57;0.57;;;;;;;;;;6235890;23;20175;-89
2022/04/05 07:53:12;;;;;;;0.83;0.70;;;;;;;;;;6234288;23;20170;-87
2022/04/05 07:56:19;;;;;;;0.60;0.60;;;;;;;;;;6254514;23;20155;-88
2022/04/05 07:59:24;;;;;;;0.40;0.40;;;;;;;;;;6235577;23;20241;-87
2022/04/05 08:02:29;;;;;;;3.30;1.87;;;;;;;;;;6254011;23;20248;-85
2022/04/05 08:05:34;;;;;;;8.33;2.03;;;;;;;;;;6254274;23;20218;-86
2022/04/05 08:08:39;;;;;;;0.80;0.80;;;;;;;;;;6256304;23;20174;-86
2022/04/05 08:11:46;;;;;;;0.40;0.40;;;;;;;;;;6255701;23;20171;-87
2022/04/05 08:14:52;;;;;;;0.37;0.37;;;;;;;;;;6240415;23;20174;-86
2022/04/05 08:17:57;;;;;;;0.57;0.57;;;;;;;;;;6257619;23;20170;-88
2022/04/05 08:21:02;;;;;;;0.53;0.53;;;;;;;;;;6240361;23;20170;-90
2022/04/05 08:24:07;;;;;;;0.70;0.70;;;;;;;;;;6256896;22;20286;-86
2022/04/05 08:27:15;;;;;;;1.63;1.27;;;;;;;;;;6256184;23;20172;-86
2022/04/05 08:30:20;;;;;;;0.43;0.43;;;;;;;;;;6253640;23;20606;-87
2022/04/05 08:33:26;;;;;;;0.33;0.33;;;;;;;;;;6255756;23;20166;-87
2022/04/05 08:36:31;;;;;;;8.20;3.93;;;;;;;;;;6256740;23;20169;-88
2022/04/05 08:39:36;;;;;;;1.57;1.47;;;;;;;;;;6254734;23;20194;-87
2022/04/05 08:42:44;;;;;;;10.43;4.23;;;;;;;;;;6254921;23;20171;-89
2022/04/05 08:45:55;;;;;;;5.90;3.27;;;;;;;;;;6255044;23;20194;-88
2022/04/05 08:49:00;;;;;;;0.90;0.90;;;;;;;;;;6255872;23;20170;-88
2022/04/05 08:52:06;;;;;;;1.97;1.83;;;;;;;;;;6238256;23;20193;-87
2022/04/05 08:55:11;;;;;;;1.67;1.47;;;;;;;;;;6256394;23;20186;-87
2022/04/05 08:58:17;;;;;;;0.60;0.60;;;;;;;;;;6237414;23;20216;-89
2022/04/05 09:01:23;;;;;;;1.00;0.93;;;;;;;;;;6238114;23;20242;-88
2022/04/05 09:04:33;;;;;;;2.67;0.70;;;;;;;;;;6238256;22;20170;-87
2022/04/05 09:07:40;;;;;;;1.70;1.13;;;;;;;;;;6238281;23;20166;-87
2022/04/05 09:10:47;;;;;;;1.70;1.10;;;;;;;;;;6255781;23;20166;-87
2022/04/05 09:14:01;;;;;;;0.77;0.70;;;;;;;;;;6235930;23;20435;-88
2022/04/05 09:17:17;;;;;;;0.60;0.60;;;;;;;;;;6235284;23;20173;-88
2022/04/05 09:20:24;;;;;;;3.07;1.13;;;;;;;;;;6253335;23;20269;-87
2022/04/05 09:23:30;;;;;;;23.77;1.97;;;;;;;;;;6251852;23;20175;-86
2022/04/05 09:26:43;;;;;;;0.63;0.63;;;;;;;;;;6234659;23;20625;-86
2022/04/05 09:29:51;;;;;;;1.00;0.87;;;;;;;;;;6237283;23;20167;-88
2022/04/05 09:32:56;;;;;;;3.23;0.87;;;;;;;;;;6236263;23;20199;-86
2022/04/05 09:36:07;;;;;;;0.70;0.70;;;;;;;;;;6253148;23;20629;-85
2022/04/05 09:39:12;;;;;;;1.43;0.60;;;;;;;;;;6233939;23;20269;-87
2022/04/05 09:42:17;;;;;;;0.93;0.93;;;;;;;;;;6251760;23;20243;-86
2022/04/05 09:45:42;;;;;;;0.73;0.73;;;;;;;;;;6234273;23;20190;-88
2022/04/05 09:48:47;;;;;;;1.10;0.97;;;;;;;;;;6253003;23;20679;-88
2022/04/05 09:51:53;;;;;;;5.17;1.10;;;;;;;;;;6238075;23;20190;-87
2022/04/05 09:55:09;;;;;;;1.67;1.33;;;;;;;;;;6239330;23;20170;-86
2022/04/05 09:58:15;;;;;;;0.90;0.90;;;;;;;;;;6254057;23;20241;-87
2022/04/05 10:01:23;;;;;;;1.53;0.93;;;;;;;;;;6257524;23;20166;-87
2022/04/05 10:04:30;;;;;;;0.70;0.70;;;;;;;;;;6311811;22;20276;-88
2022/04/05 10:07:35;;;;;;;0.70;0.70;;;;;;;;;;6318634;22;20617;-87
2022/04/05 10:10:40;;;;;;;1.17;1.07;;;;;;;;;;6318907;22;20206;-85
2022/04/05 10:13:45;;;;;;;2.33;1.30;;;;;;;;;;6317134;22;20165;-87
2022/04/05 10:17:19;;;;;;;1.47;1.37;;;;;;;;;;6315762;22;20157;-87
2022/04/05 10:20:26;;;;;;;1.70;1.23;;;;;;;;;;6300183;22;20570;-87
2022/04/05 10:23:34;;;;;;;0.47;0.47;;;;;;;;;;6319544;22;20227;-88
2022/04/05 10:26:39;;;;;;;0.50;0.50;;;;;;;;;;6299481;22;20234;-89
2022/04/05 10:29:46;;;;;;;2.77;1.60;;;;;;;;;;6317270;22;20168;-87
2022/04/05 10:32:57;;;;;;;0.93;0.93;;;;;;;;;;6319087;22;20168;-87
2022/04/05 10:36:05;;;;;;;2.10;1.20;;;;;;;;;;6318500;22;20495;-86
2022/04/05 10:39:14;;;;;;;1.70;0.93;;;;;;;;;;6300751;22;20372;-88
2022/04/05 10:42:25;;;;;;;0.70;0.70;;;;;;;;;;6318973;22;20173;-87
2022/04/05 10:45:30;;;;;;;0.80;0.80;;;;;;;;;;6297263;22;20169;-88
2022/04/05 10:48:35;;;;;;;0.87;0.63;;;;;;;;;;6318332;22;20204;-89
2022/04/05 10:51:58;;;;;;;0.60;0.60;;;;;;;;;;6299450;22;20169;-88
2022/04/05 10:55:11;;;;;;;0.53;0.53;;;;;;;;;;6317383;22;20165;-86
2022/04/05 10:58:17;;;;;;;0.70;0.70;;;;;;;;;;6301149;22;20218;-89
2022/04/05 11:01:22;;;;;;;1.67;1.57;;;;;;;;;;6316900;22;20611;-87
2022/04/05 11:04:33;;;;;;;0.80;0.80;;;;;;;;;;6320286;22;20172;-86
2022/04/05 11:07:53;;;;;;;0.50;0.50;;;;;;;;;;6299682;22;20276;-88
2022/04/05 11:11:02;;;;;;;0.53;0.53;;;;;;;;;;6297584;22;20215;-88
2022/04/05 11:14:07;;;;;;;0.83;0.70;;;;;;;;;;6315225;22;20798;-87
2022/04/05 11:17:14;;;;;;;0.77;0.77;;;;;;;;;;6314859;22;20164;-86
2022/04/05 11:20:23;;;;;;;1.57;1.43;;;;;;;;;;6301613;22;20200;-87
2022/04/05 11:23:42;;;;;;;0.60;0.60;;;;;;;;;;6319219;22;20504;-88
2022/04/05 11:26:48;;;;;;;1.47;1.07;;;;;;;;;;6299146;22;20176;-86
2022/04/05 11:30:08;;;;;;;0.63;0.63;;;;;;;;;;6316692;22;20172;-87
2022/04/05 11:33:32;;;;;;;0.93;0.77;;;;;;;;;;6303180;22;20169;-87
2022/04/05 11:36:42;;;;;;;0.60;0.60;;;;;;;;;;6301803;22;20207;-86
2022/04/05 11:39:47;;;;;;;1.43;1.33;;;;;;;;;;6319233;22;20224;-87
2022/04/05 11:42:56;;;;;;;2.10;1.20;;;;;;;;;;6319115;22;20169;-85
2022/04/05 11:46:03;;;;;;;1.10;0.93;;;;;;;;;;6318527;22;20168;-86
2022/04/05 11:49:10;;;;;;;0.87;0.70;;;;;;;;;;6302432;22;20241;-87
2022/04/05 11:52:15;;;;;;;3.90;1.30;;;;;;;;;;6319162;22;20559;-87
2022/04/05 11:58:46;;;;;;;1.03;0.90;;;;;;;;;;6320938;22;20597;-87
2022/04/05 12:01:52;;;;;;;3.40;1.13;;;;;;;;;;6320186;22;20225;-86
2022/04/05 12:04:57;;;;;;;0.83;0.83;;;;;;;;;;6318143;22;20180;-88
2022/04/05 12:08:02;;;;;;;0.60;0.60;;;;;;;;;;6300646;22;20164;-88
2022/04/05 12:11:09;;;;;;;0.60;0.60;;;;;;;;;;6317557;22;20241;-86
2022/04/05 12:14:17;;;;;;;1.17;1.07;;;;;;;;;;6301252;22;20169;-87
2022/04/05 12:17:33;;;;;;;0.77;0.67;;;;;;;;;;6317916;22;20292;-85
2022/04/05 12:20:38;;;;;;;3.90;1.30;;;;;;;;;;6299566;22;20258;-88
2022/04/05 12:23:44;;;;;;;0.97;0.77;;;;;;;;;;6316849;22;20172;-88
2022/04/05 12:26:49;;;;;;;0.87;0.87;;;;;;;;;;6316201;22;20235;-87
2022/04/05 12:30:00;;;;;;;0.93;0.83;;;;;;;;;;6317467;22;20166;-86
2022/04/05 12:33:05;;;;;;;0.93;0.87;;;;;;;;;;6302189;22;20165;-84
2022/04/05 12:36:11;;;;;;;1.07;0.97;;;;;;;;;;6319622;22;20243;-86
2022/04/05 12:39:20;;;;;;;0.50;0.50;;;;;;;;;;6302430;22;20181;-87
2022/04/05 12:42:27;;;;;;;1.33;1.23;;;;;;;;;;6300532;22;20161;-86
2022/04/05 12:45:34;;;;;;;0.67;0.67;;;;;;;;;;6301328;22;20244;-89
2022/04/05 12:48:41;;;;;;;0.60;0.60;;;;;;;;;;6297791;22;20188;-88
2022/04/05 12:51:46;;;;;;;0.50;0.50;;;;;;;;;;6298977;22;20238;-88
2022/04/05 12:54:52;;;;;;;1.50;0.90;;;;;;;;;;6319881;22;20172;-87
2022/04/05 12:57:57;;;;;;;1.57;1.27;;;;;;;;;;6318495;22;20173;-87
2022/04/05 13:01:15;;;;;;;0.67;0.67;;;;;;;;;;6317366;22;20267;-87
2022/04/05 13:04:23;;;;;;;0.83;0.60;;;;;;;;;;6318048;22;20193;-86
2022/04/05 13:07:28;;;;;;;1.00;0.90;;;;;;;;;;6300076;22;20272;-87
2022/04/05 13:10:33;;;;;;;0.60;0.60;;;;;;;;;;6317049;22;20169;-87
2022/04/05 13:13:39;;;;;;;1.90;1.07;;;;;;;;;;6317067;22;20169;-87
2022/04/05 13:16:48;;;;;;;0.50;0.50;;;;;;;;;;6318065;22;20244;-86
2022/04/05 13:19:56;;;;;;;2.27;1.53;;;;;;;;;;6301656;22;20207;-87
2022/04/05 13:23:01;;;;;;;0.90;0.90;;;;;;;;;;6320687;22;20597;-86
2022/04/05 13:26:20;;;;;;;0.80;0.80;;;;;;;;;;6321326;22;20546;-85
2022/04/05 13:29:26;;;;;;;1.60;1.00;;;;;;;;;;6322683;22;20495;-87
2022/04/05 13:32:34;;;;;;;0.80;0.80;;;;;;;;;;6304913;22;20169;-89
2022/04/05 13:35:40;;;;;;;0.67;0.67;;;;;;;;;;6303536;22;20233;-88
2022/04/05 13:38:49;;;;;;;9.47;2.27;;;;;;;;;;6322866;22;20168;-86
2022/04/05 13:41:54;;;;;;;2.00;1.00;;;;;;;;;;6322576;22;20192;-88
2022/04/05 13:44:59;;;;;;;2.60;1.70;;;;;;;;;;6322960;22;20161;-90
2022/04/05 13:48:07;;;;;;;0.80;0.77;;;;;;;;;;6322747;22;20164;-87
2022/04/05 13:51:12;;;;;;;0.77;0.70;;;;;;;;;;6322518;22;20161;-86
2022/04/05 13:54:18;;;;;;;0.73;0.73;;;;;;;;;;6320572;22;20180;-87
2022/04/05 13:57:26;;;;;;;1.37;0.97;;;;;;;;;;6320935;22;20166;-86
2022/04/05 14:00:32;;;;;;;2.27;1.17;;;;;;;;;;6321181;22;20200;-87
2022/04/05 14:03:39;;;;;;;0.80;0.80;;;;;;;;;;6321524;22;20196;-85
2022/04/05 14:06:45;;;;;;;1.00;0.90;;;;;;;;;;6320915;22;20243;-87
2022/04/05 14:09:50;;;;;;;1.13;0.80;;;;;;;;;;6319922;22;20875;-86
2022/04/05 14:12:56;;;;;;;0.80;0.80;;;;;;;;;;6321873;22;20161;-86
2022/04/05 14:16:01;;;;;;;1.77;0.80;;;;;;;;;;6321155;22;20164;-87
2022/04/05 14:19:09;;;;;;;0.70;0.70;;;;;;;;;;6322309;22;20165;-85
2022/04/05 14:22:14;;;;;;;4.80;1.40;;;;;;;;;;6321449;22;20238;-84
2022/04/05 14:25:19;;;;;;;1.03;0.93;;;;;;;;;;6322834;22;20149;-87
2022/04/05 14:28:29;;;;;;;1.37;1.00;;;;;;;;;;6321181;22;20185;-85
2022/04/05 14:31:35;;;;;;;1.10;0.90;;;;;;;;;;6323291;22;20216;-88
2022/04/05 14:34:41;;;;;;;0.87;0.87;;;;;;;;;;6320814;22;20192;-87
2022/04/05 14:37:47;;;;;;;1.30;1.07;;;;;;;;;;6300735;22;20284;-86
2022/04/05 14:40:56;;;;;;;2.47;1.67;;;;;;;;;;6319944;22;20188;-86
2022/04/05 14:44:01;;;;;;;2.30;1.87;;;;;;;;;;6298881;22;20188;-85
2022/04/05 14:47:07;;;;;;;1.27;1.10;;;;;;;;;;6315746;22;20204;-87
2022/04/05 14:50:13;;;;;;;1.67;1.37;;;;;;;;;;6315449;22;20169;-85
2022/04/05 14:53:19;;;;;;;1.10;0.93;;;;;;;;;;6296894;22;20173;-86
2022/04/05 14:56:24;;;;;;;1.07;0.97;;;;;;;;;;6317087;22;20172;-86
2022/04/05 14:59:30;;;;;;;2.03;1.47;;;;;;;;;;6314300;22;20227;-87
2022/04/05 15:02:36;;;;;;;1.77;1.00;;;;;;;;;;6313953;22;20193;-84
2022/04/05 15:05:44;;;;;;;1.23;1.13;;;;;;;;;;6297597;22;20177;-86
2022/04/05 15:08:49;;;;;;;1.50;1.30;;;;;;;;;;6313860;22;20172;-85
2022/04/05 15:11:55;;;;;;;1.87;1.37;;;;;;;;;;6296972;22;20165;-86
2022/04/05 15:15:00;;;;;;;5.03;2.07;;;;;;;;;;6298642;22;20539;-86
2022/04/05 15:18:05;;;;;;;4.15;1.48;;;;;;;;;;6296494;22;20172;-84
2022/04/05 15:21:13;;;;;;;1.40;1.30;;;;;;;;;;6316988;22;20177;-86
2022/04/05 15:24:20;;;;;;;2.33;1.47;;;;;;;;;;6318437;22;20242;-86
2022/04/05 15:27:25;;;;;;;4.10;2.03;;;;;;;;;;6315064;22;20227;-87
2022/04/05 15:30:33;;;;;;;1.30;1.20;;;;;;;;;;6297876;22;20211;-86
2022/04/05 15:33:39;;;;;;;1.43;1.03;;;;;;;;;;6314050;22;20503;-86
2022/04/05 15:36:45;;;;;;;2.47;1.93;;;;;;;;;;6315194;22;20153;-86
2022/04/05 15:39:50;;;;;;;5.53;1.37;;;;;;;;;;6317070;22;20226;-85
2022/04/05 15:42:55;;;;;;;7.00;1.53;;;;;;;;;;6318110;22;20169;-85
2022/04/05 15:45:59;;;;;;;1.30;1.20;;;;;;;;;;6316784;22;20288;-87
2022/04/05 15:49:07;;;;;;;1.17;1.10;;;;;;;;;;6316775;22;20495;-85
2022/04/05 15:52:14;;;;;;;3.80;1.93;;;;;;;;;;6315973;22;20180;-84
2022/04/05 15:55:19;;;;;;;2.13;1.83;;;;;;;;;;6315035;22;20168;-86
2022/04/05 15:58:24;;;;;;;1.70;1.53;;;;;;;;;;6316788;22;20261;-84
2022/04/05 16:01:30;;;;;;;1.27;1.17;;;;;;;;;;6317119;22;20209;-85
2022/04/05 16:04:36;;;;;;;1.63;1.27;;;;;;;;;;6317400;22;20192;-86
2022/04/05 16:07:43;;;;;;;3.57;1.83;;;;;;;;;;6315729;22;20184;-85
2022/04/05 16:10:48;;;;;;;1.00;1.00;;;;;;;;;;6318182;22;20173;-84
2022/04/05 16:13:54;;;;;;;1.20;1.13;;;;;;;;;;6301006;22;20219;-85
2022/04/05 16:17:00;;;;;;;4.27;1.57;;;;;;;;;;6315513;22;20165;-85
2022/04/05 16:20:05;;;;;;;0.73;0.67;;;;;;;;;;6315314;22;20284;-84
2022/04/05 16:23:12;;;;;;;2.43;1.57;;;;;;;;;;6296514;22;20181;-85
2022/04/05 16:26:19;;;;;;;1.43;1.33;;;;;;;;;;6314031;22;20276;-85
2022/04/05 16:29:25;;;;;;;2.17;1.10;;;;;;;;;;6298528;22;20239;-85
2022/04/05 16:32:30;;;;;;;1.70;1.20;;;;;;;;;;6315785;22;20275;-87
2022/04/05 16:35:36;;;;;;;1.00;1.00;;;;;;;;;;6314817;22;20256;-87
2022/04/05 16:38:43;;;;;;;2.90;1.97;;;;;;;;;;6297646;22;20169;-86
2022/04/05 16:41:48;;;;;;;1.27;1.17;;;;;;;;;;6313754;22;20197;-86
2022/04/05 16:44:54;;;;;;;1.17;1.07;;;;;;;;;;6314622;22;20177;-87
2022/04/05 16:47:59;;;;;;;2.10;1.50;;;;;;;;;;6314574;22;20489;-85
2022/04/05 16:51:04;;;;;;;1.03;0.93;;;;;;;;;;6296067;22;20169;-86
2022/04/05 16:54:12;;;;;;;1.67;1.23;;;;;;;;;;6314848;22;20476;-86
2022/04/05 16:57:18;;;;;;;1.47;1.37;;;;;;;;;;6296317;22;20177;-86
2022/04/05 17:00:24;;;;;;;2.73;1.37;;;;;;;;;;6313224;22;20166;-85
2022/04/05 17:03:29;;;;;;;2.20;1.37;;;;;;;;;;6314460;22;20185;-86
2022/04/05 17:06:33;;;;;;;3.27;1.67;;;;;;;;;;6314489;22;20296;-85
2022/04/05 17:09:40;;;;;;;1.40;1.13;;;;;;;;;;6320286;22;20241;-88
2022/04/05 17:12:46;;;;;;;2.60;1.47;;;;;;;;;;6314097;22;20177;-84
2022/04/05 17:15:51;;;;;;;2.57;2.20;;;;;;;;;;6313112;22;20177;-86
2022/04/05 17:18:56;;;;;;;3.10;2.13;;;;;;;;;;6314372;22;20173;-85
2022/04/05 17:22:05;;;;;;;1.60;1.50;;;;;;;;;;6312958;22;20272;-85
2022/04/05 17:25:11;;;;;;;1.97;1.63;;;;;;;;;;6296396;22;20216;-86
2022/04/05 17:28:16;;;;;;;1.10;0.97;;;;;;;;;;6312891;22;20165;-85
2022/04/05 17:31:21;;;;;;;3.17;1.57;;;;;;;;;;6313600;22;20239;-85
2022/04/05 17:34:26;;;;;;;1.07;0.97;;;;;;;;;;6296970;22;20173;-86
2022/04/05 17:37:32;;;;;;;2.93;1.73;;;;;;;;;;6315626;22;20239;-86
2022/04/05 17:40:42;;;;;;;2.90;2.60;;;;;;;;;;6297278;22;20560;-86
2022/04/05 17:43:48;;;;;;;4.03;1.73;;;;;;;;;;6295460;22;20251;-86
2022/04/05 17:46:53;;;;;;;3.03;2.80;;;;;;;;;;6314684;22;20162;-85
2022/04/05 17:49:58;;;;;;;2.37;2.17;;;;;;;;;;6294511;22;20181;-86
2022/04/05 17:53:04;;;;;;;2.00;1.53;;;;;;;;;;6313528;22;20180;-86
2022/04/05 17:56:10;;;;;;;1.93;1.73;;;;;;;;;;6313128;22;20186;-86
2022/04/05 17:59:16;;;;;;;1.60;1.50;;;;;;;;;;6314382;22;20678;-84
2022/04/05 18:02:21;;;;;;;1.87;1.50;;;;;;;;;;6313966;22;20686;-85
2022/04/05 18:05:28;;;;;;;2.30;2.10;;;;;;;;;;6294967;22;20184;-84
2022/04/05 18:08:34;;;;;;;1.80;1.10;;;;;;;;;;6294920;22;20257;-84
2022/04/05 18:11:41;;;;;;;4.83;2.27;;;;;;;;;;6314810;22;20169;-85
2022/04/05 18:14:45;;;;;;;6.57;1.80;;;;;;;;;;6315998;22;20173;-86
2022/04/05 18:17:52;;;;;;;2.47;1.87;;;;;;;;;;6315571;22;20214;-85
2022/04/05 18:20:57;;;;;;;4.47;1.93;;;;;;;;;;6316286;22;20176;-85
2022/04/05 18:24:02;;;;;;;1.97;1.77;;;;;;;;;;6313143;22;20160;-84
2022/04/05 18:27:09;;;;;;;2.60;1.53;;;;;;;;;;6315513;22;20148;-85
2022/04/05 18:30:14;;;;;;;0.90;0.90;;;;;;;;;;6316517;22;20169;-86
2022/04/05 18:33:20;;;;;;;1.83;1.73;;;;;;;;;;6313703;22;20523;-86
2022/04/05 18:36:25;;;;;;;1.73;1.13;;;;;;;;;;6312680;22;20292;-85